createdAt,value
2023-02-15T00:06:22.544Z,1.8
2023-02-15T00:25:40.556Z,1.5
2023-02-15T00:45:06.657Z,1.8
2023-02-15T01:04:26.999Z,2
2023-02-15T01:23:35.724Z,1.2
2023-02-15T01:42:48.778Z,1.2
2023-02-15T02:02:06.180Z,0.9
2023-02-15T02:21:24.916Z,0.9
2023-02-15T02:40:42.188Z,1.2
2023-02-15T02:59:59.687Z,0.7
2023-02-15T03:19:18.271Z,0.8
2023-02-15T03:38:34.156Z,0.3
2023-02-15T03:57:52.950Z,0.7
2023-02-15T04:17:10.790Z,0.6
2023-02-15T04:36:28.509Z,0.6
2023-02-15T04:55:46.090Z,0.4
2023-02-15T05:15:03.640Z,0.3
2023-02-15T05:34:21.462Z,0.2
2023-02-15T05:53:36.528Z,0.3
2023-02-15T06:12:52.764Z,-0.2
2023-02-15T06:32:12.756Z,0.1
2023-02-15T06:51:29.104Z,-0.1
2023-02-15T07:10:47.195Z,-0.3
2023-02-15T07:30:03.282Z,-0.4
2023-02-15T07:49:22.943Z,-0.1
2023-02-15T08:08:41.829Z,0.3
2023-02-15T08:28:04.435Z,2.1
2023-02-15T08:47:23.621Z,2.5
2023-02-15T09:06:49.779Z,2.7
2023-02-15T09:26:07.344Z,2.5
2023-02-15T09:45:41.519Z,3.2
2023-02-15T10:05:13.163Z,3.5
2023-02-15T10:24:16.194Z,2.4
2023-02-15T10:43:34.097Z,2.8
2023-02-15T11:02:53.248Z,2.4
2023-02-15T11:22:12.389Z,2.8
2023-02-15T11:41:33.473Z,2.7
2023-02-15T12:00:48.531Z,3.1
2023-02-15T12:20:10.407Z,3.1
2023-02-15T12:39:31.861Z,4.1
2023-02-15T12:58:51.144Z,3.1
2023-02-15T13:18:12.477Z,3.9
2023-02-15T13:37:32.402Z,3.6
2023-02-15T13:56:51.817Z,3.4
2023-02-15T14:16:11.497Z,3.4
2023-02-15T14:35:31.365Z,3.8
2023-02-15T14:54:47.564Z,4.2
2023-02-15T15:14:04.290Z,4.4
2023-02-15T15:33:20.791Z,3.9
2023-02-15T15:52:36.887Z,3.9
2023-02-15T16:11:54.091Z,3.7
2023-02-15T16:31:13.953Z,3.6
2023-02-15T16:50:25.670Z,3.5
2023-02-15T17:09:42.604Z,3.6
2023-02-15T17:29:00.664Z,3.6
2023-02-15T17:48:15.535Z,3.6
2023-02-15T18:07:33.157Z,3.6
2023-02-15T18:26:52.412Z,3.6
2023-02-15T18:46:10.114Z,3.5
2023-02-15T19:05:26.865Z,3.5
2023-02-15T19:24:44.584Z,3.4
2023-02-15T19:44:02.785Z,3.4
2023-02-15T20:03:23.603Z,3.5
2023-02-15T20:22:38.604Z,3.3
2023-02-15T20:41:55.646Z,3.1
2023-02-15T21:01:11.564Z,3.3
2023-02-15T21:20:27.006Z,3.1
2023-02-15T21:39:45.034Z,3.2
2023-02-15T21:59:01.172Z,3.1
2023-02-15T22:18:19.839Z,3.3
2023-02-15T22:37:38.079Z,3.1
2023-02-15T22:56:54.094Z,2.8
2023-02-15T23:16:09.867Z,2.7
2023-02-15T23:35:27.889Z,2.5
2023-02-15T23:54:43.622Z,2.5
